Time;durP1;ratioP1;P1;durP2;ratioP2;P2;SDS_P1;SDS_P2;PMS_P1;PMS_P2;Temp;Humidity;BMP_temperature;BMP_pressure;BME280_temperature;BME280_humidity;BME280_pressure;Samples;Min_cycle;Max_cycle;Signal;HPM_P1;HPM_P2
2022/03/06 00:00:30;;;;;;;13.10;8.40;;;;;;;;;;5009879;28;20210;-78
2022/03/06 00:02:56;;;;;;;14.17;8.00;;;;;;;;;;5010518;28;20266;-78
2022/03/06 00:05:23;;;;;;;11.90;7.93;;;;;;;;;;5010211;28;20194;-78
2022/03/06 00:07:50;;;;;;;10.10;7.00;;;;;;;;;;5008002;28;20595;-78
2022/03/06 00:10:16;;;;;;;10.43;7.47;;;;;;;;;;5010907;28;20217;-78
2022/03/06 00:12:42;;;;;;;11.63;7.27;;;;;;;;;;5010379;28;20874;-78
2022/03/06 00:15:08;;;;;;;11.90;7.10;;;;;;;;;;5011469;28;20193;-78
2022/03/06 00:17:35;;;;;;;11.43;7.17;;;;;;;;;;5015576;28;20252;-78
2022/03/06 00:20:02;;;;;;;11.77;7.47;;;;;;;;;;5015012;28;20230;-78
2022/03/06 00:22:29;;;;;;;9.50;6.70;;;;;;;;;;5003992;28;20659;-79
2022/03/06 00:24:58;;;;;;;9.40;6.90;;;;;;;;;;4998199;28;20282;-78
2022/03/06 00:27:24;;;;;;;10.33;6.73;;;;;;;;;;5014438;28;20219;-78
2022/03/06 00:29:51;;;;;;;8.93;6.10;;;;;;;;;;5014904;28;20194;-79
2022/03/06 00:32:17;;;;;;;10.27;6.47;;;;;;;;;;5012341;28;20911;-78
2022/03/06 00:34:46;;;;;;;10.47;6.80;;;;;;;;;;5014178;28;20195;-77
2022/03/06 00:37:12;;;;;;;11.10;7.40;;;;;;;;;;5009938;28;20203;-78
2022/03/06 00:39:38;;;;;;;10.50;7.23;;;;;;;;;;5011677;28;20206;-77
2022/03/06 00:42:05;;;;;;;10.47;7.23;;;;;;;;;;5009454;28;20183;-78
2022/03/06 00:44:31;;;;;;;10.67;7.07;;;;;;;;;;5006442;28;21004;-79
2022/03/06 00:46:57;;;;;;;10.50;7.27;;;;;;;;;;5013598;28;20286;-78
2022/03/06 00:49:24;;;;;;;11.90;7.53;;;;;;;;;;5009931;28;20207;-79
2022/03/06 00:51:50;;;;;;;10.70;7.27;;;;;;;;;;5009955;28;20176;-79
2022/03/06 00:54:17;;;;;;;9.23;6.57;;;;;;;;;;5004597;28;20179;-78
2022/03/06 00:56:43;;;;;;;13.20;7.47;;;;;;;;;;5010067;28;20171;-78
2022/03/06 00:59:10;;;;;;;12.57;7.57;;;;;;;;;;5011266;28;20237;-78
2022/03/06 01:01:36;;;;;;;10.77;7.27;;;;;;;;;;5009939;28;20231;-78
2022/03/06 01:04:02;;;;;;;11.93;7.10;;;;;;;;;;5012159;28;20484;-79
2022/03/06 01:06:28;;;;;;;12.40;7.73;;;;;;;;;;5012868;28;20183;-79
2022/03/06 01:08:54;;;;;;;10.60;7.00;;;;;;;;;;5006703;28;20230;-78
2022/03/06 01:11:21;;;;;;;11.87;7.60;;;;;;;;;;5008752;28;20195;-79
2022/03/06 01:13:48;;;;;;;12.20;7.90;;;;;;;;;;5009075;28;20191;-78
2022/03/06 01:16:14;;;;;;;12.37;8.03;;;;;;;;;;5012897;28;20187;-79
2022/03/06 01:18:40;;;;;;;13.83;8.20;;;;;;;;;;5010176;28;20210;-78
2022/03/06 01:21:06;;;;;;;11.93;7.77;;;;;;;;;;5010050;28;20203;-79
2022/03/06 01:23:35;;;;;;;11.50;7.77;;;;;;;;;;5004132;28;20269;-79
2022/03/06 01:26:01;;;;;;;13.53;7.90;;;;;;;;;;5015924;28;20191;-79
2022/03/06 01:28:27;;;;;;;14.03;8.40;;;;;;;;;;5018482;28;20207;-79
2022/03/06 01:30:53;;;;;;;11.37;7.43;;;;;;;;;;5006793;28;20194;-79
2022/03/06 01:33:19;;;;;;;10.67;7.50;;;;;;;;;;5013113;28;20198;-79
2022/03/06 01:35:45;;;;;;;11.77;7.70;;;;;;;;;;5009581;28;20211;-79
2022/03/06 01:38:12;;;;;;;10.63;6.70;;;;;;;;;;5004458;28;20211;-79
2022/03/06 01:40:38;;;;;;;12.63;8.20;;;;;;;;;;5012158;28;20973;-78
2022/03/06 01:43:04;;;;;;;13.60;7.97;;;;;;;;;;5012868;28;20234;-79
2022/03/06 01:45:30;;;;;;;11.17;6.90;;;;;;;;;;5015475;28;20617;-79
2022/03/06 01:47:58;;;;;;;13.13;7.90;;;;;;;;;;5014340;28;20207;-79
2022/03/06 01:50:33;;;;;;;11.80;7.83;;;;;;;;;;5013462;28;20184;-79
2022/03/06 01:53:00;;;;;;;11.33;7.40;;;;;;;;;;5009747;28;20190;-79
2022/03/06 01:55:26;;;;;;;12.17;7.40;;;;;;;;;;5012263;28;20193;-79
2022/03/06 01:57:54;;;;;;;12.47;8.20;;;;;;;;;;5006997;28;20576;-79
2022/03/06 02:00:24;;;;;;;12.00;6.97;;;;;;;;;;5012965;28;20671;-79
2022/03/06 02:02:50;;;;;;;13.73;8.27;;;;;;;;;;5001485;28;20180;-79
2022/03/06 02:05:17;;;;;;;11.20;7.40;;;;;;;;;;5013126;28;20179;-79
2022/03/06 02:07:43;;;;;;;10.73;7.40;;;;;;;;;;5012430;28;20211;-79
2022/03/06 02:10:10;;;;;;;10.07;6.70;;;;;;;;;;5007563;28;20191;-79
2022/03/06 02:12:36;;;;;;;12.67;7.53;;;;;;;;;;5011585;28;20237;-79
2022/03/06 02:15:05;;;;;;;10.33;7.13;;;;;;;;;;5012459;28;20191;-79
2022/03/06 02:17:32;;;;;;;11.20;7.30;;;;;;;;;;5012301;28;20223;-79
2022/03/06 02:20:02;;;;;;;11.67;7.17;;;;;;;;;;5004437;28;20199;-79
2022/03/06 02:22:32;;;;;;;10.87;7.17;;;;;;;;;;5008811;28;20589;-78
2022/03/06 02:24:59;;;;;;;12.20;7.57;;;;;;;;;;5011445;28;20191;-78
2022/03/06 02:27:26;;;;;;;12.90;7.47;;;;;;;;;;5007790;28;20210;-78
2022/03/06 02:29:52;;;;;;;12.20;7.23;;;;;;;;;;5011705;28;20190;-78
2022/03/06 02:32:20;;;;;;;12.07;7.63;;;;;;;;;;5006892;28;20179;-78
2022/03/06 02:34:47;;;;;;;15.60;8.80;;;;;;;;;;5009573;28;20195;-78
2022/03/06 02:37:14;;;;;;;11.57;7.13;;;;;;;;;;5012020;28;20207;-78
2022/03/06 02:39:40;;;;;;;11.33;7.43;;;;;;;;;;5011610;28;20543;-78
2022/03/06 02:42:06;;;;;;;11.60;7.50;;;;;;;;;;5009403;28;20179;-78
2022/03/06 02:44:32;;;;;;;12.60;7.60;;;;;;;;;;5009987;28;20183;-78
2022/03/06 02:46:58;;;;;;;10.40;7.23;;;;;;;;;;5012237;28;20207;-79
2022/03/06 02:49:25;;;;;;;10.60;7.63;;;;;;;;;;4995321;28;20191;-78
2022/03/06 02:51:51;;;;;;;10.43;7.27;;;;;;;;;;5005147;28;20555;-78
2022/03/06 02:54:20;;;;;;;11.30;7.70;;;;;;;;;;5011818;28;20209;-78
2022/03/06 02:56:46;;;;;;;11.90;7.53;;;;;;;;;;5010684;28;20214;-78
2022/03/06 02:59:12;;;;;;;10.73;7.27;;;;;;;;;;5010853;28;20669;-79
2022/03/06 03:01:41;;;;;;;10.20;7.00;;;;;;;;;;5002968;28;20264;-78
2022/03/06 03:04:08;;;;;;;11.17;7.17;;;;;;;;;;5007397;28;20734;-79
2022/03/06 03:06:34;;;;;;;11.80;7.80;;;;;;;;;;5010422;28;20599;-78
2022/03/06 03:09:02;;;;;;;13.73;7.27;;;;;;;;;;5010856;28;20689;-78
2022/03/06 03:11:31;;;;;;;12.03;7.67;;;;;;;;;;5004394;28;20186;-78
2022/03/06 03:13:57;;;;;;;11.47;7.27;;;;;;;;;;5011201;28;20183;-78
2022/03/06 03:16:23;;;;;;;11.97;8.17;;;;;;;;;;5010808;28;20187;-78
2022/03/06 03:18:49;;;;;;;11.40;8.07;;;;;;;;;;5005204;28;20234;-78
2022/03/06 03:21:15;;;;;;;11.40;8.03;;;;;;;;;;5003054;28;20729;-78
2022/03/06 03:23:41;;;;;;;13.37;9.60;;;;;;;;;;5011843;28;20183;-78
2022/03/06 03:26:08;;;;;;;11.27;7.90;;;;;;;;;;5003690;28;20769;-79
2022/03/06 03:28:34;;;;;;;10.17;7.13;;;;;;;;;;5003129;28;20203;-79
2022/03/06 03:31:00;;;;;;;9.80;6.97;;;;;;;;;;5007449;28;20628;-78
2022/03/06 03:33:26;;;;;;;11.87;7.60;;;;;;;;;;5010956;28;20191;-78
2022/03/06 03:35:52;;;;;;;12.27;7.40;;;;;;;;;;5005211;28;20187;-79
2022/03/06 03:38:18;;;;;;;10.17;7.00;;;;;;;;;;5006830;28;20207;-78
2022/03/06 03:40:44;;;;;;;10.77;6.90;;;;;;;;;;4988430;28;20213;-79
2022/03/06 03:43:11;;;;;;;12.07;7.77;;;;;;;;;;5008717;28;20182;-78
2022/03/06 03:45:37;;;;;;;13.77;7.87;;;;;;;;;;5010813;28;20187;-78
2022/03/06 03:48:03;;;;;;;10.70;6.93;;;;;;;;;;4984779;28;20650;-78
2022/03/06 03:50:29;;;;;;;11.23;7.80;;;;;;;;;;5003678;28;20187;-78
2022/03/06 03:52:56;;;;;;;12.30;7.63;;;;;;;;;;5006146;28;20194;-78
2022/03/06 03:55:22;;;;;;;13.27;7.90;;;;;;;;;;4995931;28;20195;-78
2022/03/06 03:57:48;;;;;;;10.87;7.07;;;;;;;;;;5009092;28;20253;-79
2022/03/06 04:00:14;;;;;;;10.57;7.10;;;;;;;;;;5014336;28;20294;-78
2022/03/06 04:02:40;;;;;;;11.73;7.57;;;;;;;;;;5009603;28;20198;-78
2022/03/06 04:05:07;;;;;;;12.60;7.63;;;;;;;;;;5003744;28;20211;-78
2022/03/06 04:07:33;;;;;;;11.80;7.90;;;;;;;;;;5006004;28;20298;-78
2022/03/06 04:09:59;;;;;;;10.93;7.30;;;;;;;;;;5011033;28;20179;-78
2022/03/06 04:12:25;;;;;;;12.37;8.10;;;;;;;;;;5005429;28;20689;-78
2022/03/06 04:14:51;;;;;;;12.30;8.00;;;;;;;;;;5008436;28;20218;-78
2022/03/06 04:17:18;;;;;;;11.40;7.37;;;;;;;;;;5011084;28;20278;-78
2022/03/06 04:19:44;;;;;;;11.17;8.00;;;;;;;;;;4996283;28;20228;-78
2022/03/06 04:22:10;;;;;;;12.67;8.17;;;;;;;;;;5009272;28;20194;-78
2022/03/06 04:24:36;;;;;;;14.03;8.67;;;;;;;;;;5010608;28;20325;-78
2022/03/06 04:27:02;;;;;;;12.00;8.17;;;;;;;;;;5008904;28;20681;-78
2022/03/06 04:29:30;;;;;;;12.80;8.63;;;;;;;;;;5010866;28;20675;-78
2022/03/06 04:31:56;;;;;;;12.20;8.07;;;;;;;;;;5008289;28;20610;-79
2022/03/06 04:34:22;;;;;;;10.10;7.57;;;;;;;;;;5010721;28;20183;-78
2022/03/06 04:36:49;;;;;;;11.80;7.73;;;;;;;;;;5006241;28;20206;-78
2022/03/06 04:39:15;;;;;;;13.87;8.87;;;;;;;;;;5010530;28;20186;-78
2022/03/06 04:41:41;;;;;;;12.97;8.37;;;;;;;;;;5011007;28;20207;-78
2022/03/06 04:44:07;;;;;;;14.50;8.87;;;;;;;;;;4997028;28;20175;-78
2022/03/06 04:46:34;;;;;;;13.70;9.10;;;;;;;;;;5009552;28;20187;-78
2022/03/06 04:49:00;;;;;;;13.57;9.10;;;;;;;;;;5010457;28;20188;-78
2022/03/06 04:51:26;;;;;;;12.80;8.03;;;;;;;;;;4999206;28;20191;-78
2022/03/06 04:53:52;;;;;;;14.20;8.73;;;;;;;;;;5007042;28;20206;-79
2022/03/06 04:56:18;;;;;;;13.00;8.93;;;;;;;;;;5008995;28;20195;-78
2022/03/06 04:58:45;;;;;;;13.37;8.90;;;;;;;;;;5010553;28;20214;-79
2022/03/06 05:01:11;;;;;;;12.10;8.63;;;;;;;;;;5007777;28;20207;-78
2022/03/06 05:03:37;;;;;;;11.73;8.20;;;;;;;;;;5010950;28;20192;-78
2022/03/06 05:06:03;;;;;;;13.67;7.87;;;;;;;;;;5013477;28;20179;-78
2022/03/06 05:08:29;;;;;;;13.43;8.47;;;;;;;;;;5010547;28;20235;-78
2022/03/06 05:10:55;;;;;;;13.90;7.40;;;;;;;;;;5012178;28;20617;-78
2022/03/06 05:13:23;;;;;;;13.57;8.27;;;;;;;;;;5012165;28;20195;-78
2022/03/06 05:15:49;;;;;;;14.53;7.87;;;;;;;;;;5010637;28;20195;-78
2022/03/06 05:18:15;;;;;;;13.50;8.20;;;;;;;;;;5012490;28;20206;-78
2022/03/06 05:20:42;;;;;;;12.37;8.87;;;;;;;;;;5014369;28;20210;-78
2022/03/06 05:23:08;;;;;;;12.73;7.93;;;;;;;;;;5012526;28;20293;-78
2022/03/06 05:25:34;;;;;;;14.30;8.40;;;;;;;;;;5013737;28;20187;-78
2022/03/06 05:28:00;;;;;;;12.13;7.90;;;;;;;;;;5006119;28;20250;-79
2022/03/06 05:30:26;;;;;;;14.13;8.27;;;;;;;;;;5013635;28;20206;-79
2022/03/06 05:32:52;;;;;;;11.87;8.50;;;;;;;;;;5013447;28;20182;-78
2022/03/06 05:35:18;;;;;;;13.10;8.07;;;;;;;;;;5010348;28;20211;-78
2022/03/06 05:37:45;;;;;;;13.30;8.27;;;;;;;;;;5011019;28;20220;-79
2022/03/06 05:40:11;;;;;;;12.70;8.17;;;;;;;;;;5013067;28;20295;-78
2022/03/06 05:42:38;;;;;;;11.67;8.30;;;;;;;;;;5011548;28;20202;-78
2022/03/06 05:45:04;;;;;;;13.87;7.73;;;;;;;;;;5013680;28;20198;-78
2022/03/06 05:47:30;;;;;;;13.83;8.80;;;;;;;;;;5012622;28;20234;-78
2022/03/06 05:49:56;;;;;;;12.67;8.30;;;;;;;;;;4995738;28;20191;-78
2022/03/06 05:52:23;;;;;;;12.60;8.33;;;;;;;;;;5003112;28;20593;-79
2022/03/06 05:54:49;;;;;;;12.33;8.53;;;;;;;;;;5013266;28;20183;-78
2022/03/06 05:57:15;;;;;;;12.43;8.30;;;;;;;;;;5012548;28;20231;-78
2022/03/06 05:59:41;;;;;;;12.27;8.20;;;;;;;;;;5013252;28;20183;-78
2022/03/06 06:02:08;;;;;;;11.73;8.20;;;;;;;;;;5012528;28;20610;-78
2022/03/06 06:04:34;;;;;;;13.57;8.57;;;;;;;;;;5000465;28;20187;-78
2022/03/06 06:07:00;;;;;;;14.93;8.80;;;;;;;;;;5008671;28;20223;-78
2022/03/06 06:09:26;;;;;;;12.23;8.20;;;;;;;;;;4993994;28;20187;-78
2022/03/06 06:11:52;;;;;;;12.00;7.97;;;;;;;;;;5010285;28;20186;-78
2022/03/06 06:14:19;;;;;;;13.70;8.50;;;;;;;;;;5005752;28;20191;-79
2022/03/06 06:16:46;;;;;;;12.00;8.23;;;;;;;;;;5009270;28;20183;-79
2022/03/06 06:19:12;;;;;;;13.73;8.60;;;;;;;;;;5012930;28;20183;-79
2022/03/06 06:21:42;;;;;;;12.73;8.13;;;;;;;;;;5011918;28;20265;-79
2022/03/06 06:24:10;;;;;;;11.43;8.30;;;;;;;;;;5012394;28;20191;-79
2022/03/06 06:26:36;;;;;;;11.87;7.93;;;;;;;;;;4995259;28;20241;-78
2022/03/06 06:29:03;;;;;;;11.17;8.07;;;;;;;;;;5007251;28;20253;-79
2022/03/06 06:31:34;;;;;;;13.67;8.37;;;;;;;;;;5007049;28;20759;-79
2022/03/06 06:34:00;;;;;;;12.53;8.17;;;;;;;;;;5011953;28;20214;-78
2022/03/06 06:36:26;;;;;;;13.33;7.87;;;;;;;;;;5008261;28;20725;-79
2022/03/06 06:38:53;;;;;;;12.27;8.33;;;;;;;;;;5008303;28;20187;-78
2022/03/06 06:41:19;;;;;;;13.60;8.60;;;;;;;;;;4997980;28;20690;-79
2022/03/06 06:43:46;;;;;;;12.90;8.63;;;;;;;;;;5001763;28;20186;-78
2022/03/06 06:46:12;;;;;;;13.20;8.70;;;;;;;;;;4994480;28;20191;-78
2022/03/06 06:48:38;;;;;;;11.60;8.10;;;;;;;;;;5010543;28;20211;-78
2022/03/06 06:51:05;;;;;;;13.50;8.47;;;;;;;;;;5027433;28;20194;-78
2022/03/06 06:53:31;;;;;;;13.10;8.80;;;;;;;;;;4985833;28;20191;-78
2022/03/06 06:55:57;;;;;;;14.70;8.43;;;;;;;;;;5011442;28;20187;-79
2022/03/06 06:58:23;;;;;;;14.57;8.60;;;;;;;;;;5008536;28;20668;-78
2022/03/06 07:00:50;;;;;;;11.40;7.33;;;;;;;;;;5010473;28;20293;-78
2022/03/06 07:03:16;;;;;;;11.77;8.20;;;;;;;;;;5010560;28;20183;-79
2022/03/06 07:05:44;;;;;;;12.93;8.67;;;;;;;;;;5008275;28;20175;-79
2022/03/06 07:08:11;;;;;;;12.00;8.60;;;;;;;;;;5006030;28;20215;-79
2022/03/06 07:10:38;;;;;;;11.83;8.30;;;;;;;;;;5006854;28;20522;-78
2022/03/06 07:13:04;;;;;;;12.73;8.77;;;;;;;;;;5010695;28;20218;-78
2022/03/06 07:15:32;;;;;;;12.90;8.50;;;;;;;;;;5007252;28;20723;-79
2022/03/06 07:18:01;;;;;;;11.17;8.03;;;;;;;;;;5009471;28;20206;-79
2022/03/06 07:20:28;;;;;;;11.17;7.97;;;;;;;;;;5007054;28;20310;-78
2022/03/06 07:22:54;;;;;;;11.40;7.70;;;;;;;;;;5026311;28;20187;-79
2022/03/06 07:25:21;;;;;;;11.77;7.47;;;;;;;;;;5010791;28;20207;-77
2022/03/06 07:27:48;;;;;;;12.37;7.80;;;;;;;;;;5008841;28;20203;-78
2022/03/06 07:30:14;;;;;;;13.30;8.00;;;;;;;;;;5016832;28;20261;-79
2022/03/06 07:32:41;;;;;;;11.40;7.70;;;;;;;;;;5017157;28;20202;-82
2022/03/06 07:35:08;;;;;;;10.83;7.67;;;;;;;;;;5009267;28;20186;-78
2022/03/06 07:37:34;;;;;;;10.40;7.73;;;;;;;;;;5000299;28;20676;-78
2022/03/06 07:40:00;;;;;;;11.40;7.73;;;;;;;;;;5002514;28;20588;-76
2022/03/06 07:42:26;;;;;;;12.13;8.60;;;;;;;;;;5005297;28;20265;-75
2022/03/06 07:44:52;;;;;;;10.03;7.23;;;;;;;;;;5010330;28;20515;-79
2022/03/06 07:47:18;;;;;;;10.57;7.63;;;;;;;;;;5010484;28;20218;-79
2022/03/06 07:49:45;;;;;;;11.07;7.70;;;;;;;;;;5006611;28;20673;-78
2022/03/06 07:52:11;;;;;;;9.47;7.07;;;;;;;;;;5006702;28;20237;-79
2022/03/06 07:54:37;;;;;;;12.97;7.70;;;;;;;;;;5007781;28;20202;-79
2022/03/06 07:57:03;;;;;;;10.77;7.23;;;;;;;;;;5008833;28;20199;-81
2022/03/06 07:59:30;;;;;;;10.80;7.40;;;;;;;;;;4993819;28;21367;-79
2022/03/06 08:01:56;;;;;;;12.23;7.43;;;;;;;;;;5006259;28;20284;-76
2022/03/06 08:04:22;;;;;;;10.33;7.43;;;;;;;;;;5006066;28;20700;-78
2022/03/06 08:06:48;;;;;;;9.00;7.40;;;;;;;;;;5006694;28;20233;-77
2022/03/06 08:09:15;;;;;;;10.37;7.30;;;;;;;;;;5009329;28;20179;-78
2022/03/06 08:11:41;;;;;;;11.70;8.07;;;;;;;;;;5005795;28;20183;-78
2022/03/06 08:14:07;;;;;;;11.40;7.63;;;;;;;;;;5007479;28;20215;-78
2022/03/06 08:16:34;;;;;;;12.60;7.87;;;;;;;;;;5004882;28;20226;-78
2022/03/06 08:19:00;;;;;;;10.73;7.47;;;;;;;;;;5005875;28;20191;-78
2022/03/06 08:21:26;;;;;;;10.93;7.47;;;;;;;;;;5005412;28;20298;-78
2022/03/06 08:23:52;;;;;;;11.23;7.90;;;;;;;;;;5006893;28;20186;-78
2022/03/06 08:26:18;;;;;;;13.20;7.80;;;;;;;;;;5004636;28;20191;-78
2022/03/06 08:28:45;;;;;;;9.80;7.37;;;;;;;;;;5006738;28;20196;-78
2022/03/06 08:31:11;;;;;;;10.50;7.80;;;;;;;;;;5006616;28;20223;-78
2022/03/06 08:33:37;;;;;;;12.20;8.20;;;;;;;;;;5008163;28;20187;-81
2022/03/06 08:36:03;;;;;;;13.57;8.90;;;;;;;;;;5008986;28;20302;-81
2022/03/06 08:38:29;;;;;;;11.60;8.00;;;;;;;;;;5012067;28;20211;-80
2022/03/06 08:40:56;;;;;;;12.27;8.10;;;;;;;;;;5012993;28;20225;-80
2022/03/06 08:43:22;;;;;;;10.60;7.47;;;;;;;;;;5014597;28;20179;-83
2022/03/06 08:45:48;;;;;;;11.20;8.13;;;;;;;;;;5012092;28;20522;-78
2022/03/06 08:48:14;;;;;;;13.77;8.40;;;;;;;;;;5015364;28;20195;-81
2022/03/06 08:50:40;;;;;;;12.20;8.50;;;;;;;;;;5014561;28;20354;-81
2022/03/06 08:53:07;;;;;;;12.00;8.30;;;;;;;;;;5010530;28;20215;-81
2022/03/06 08:55:33;;;;;;;11.93;8.90;;;;;;;;;;5014724;28;20187;-81
2022/03/06 08:57:59;;;;;;;13.80;9.10;;;;;;;;;;4996678;28;20211;-81
2022/03/06 09:00:26;;;;;;;12.90;7.90;;;;;;;;;;5013951;28;20207;-80
2022/03/06 09:02:52;;;;;;;10.73;7.70;;;;;;;;;;5011336;28;20237;-81
2022/03/06 09:05:20;;;;;;;11.37;8.00;;;;;;;;;;5009563;28;20207;-81
2022/03/06 09:07:47;;;;;;;13.23;8.70;;;;;;;;;;5010064;28;20722;-81
2022/03/06 09:10:13;;;;;;;10.70;7.90;;;;;;;;;;5008824;28;20207;-81
2022/03/06 09:12:40;;;;;;;11.17;7.80;;;;;;;;;;5013677;28;20187;-80
2022/03/06 09:15:07;;;;;;;11.33;7.73;;;;;;;;;;5012668;28;20217;-80
2022/03/06 09:17:33;;;;;;;12.37;8.70;;;;;;;;;;5013779;28;20207;-81
2022/03/06 09:19:59;;;;;;;10.43;7.80;;;;;;;;;;5013022;28;20215;-82
2022/03/06 09:22:25;;;;;;;10.47;7.67;;;;;;;;;;5011436;28;21140;-80
2022/03/06 09:24:51;;;;;;;10.63;7.50;;;;;;;;;;5007911;28;20183;-80
2022/03/06 09:27:17;;;;;;;10.40;7.53;;;;;;;;;;5013688;28;20564;-80
2022/03/06 09:29:43;;;;;;;10.23;7.53;;;;;;;;;;5015678;28;20179;-80
2022/03/06 09:32:10;;;;;;;9.50;7.40;;;;;;;;;;5021517;28;20635;-80
2022/03/06 09:34:36;;;;;;;8.97;7.07;;;;;;;;;;5011646;28;20643;-81
2022/03/06 09:37:02;;;;;;;10.87;7.70;;;;;;;;;;4995720;28;20207;-80
2022/03/06 09:39:28;;;;;;;9.73;7.03;;;;;;;;;;5014158;28;20310;-80
2022/03/06 09:41:55;;;;;;;10.73;7.63;;;;;;;;;;5013851;28;20305;-80
2022/03/06 09:44:24;;;;;;;10.53;7.70;;;;;;;;;;5011813;28;20655;-81
2022/03/06 09:46:52;;;;;;;9.97;7.13;;;;;;;;;;4992526;28;20668;-80
2022/03/06 09:49:18;;;;;;;8.80;6.97;;;;;;;;;;5016197;28;20600;-80
2022/03/06 09:51:45;;;;;;;10.07;7.30;;;;;;;;;;5013903;28;20187;-81
2022/03/06 09:54:13;;;;;;;10.43;7.73;;;;;;;;;;5013541;28;20187;-81
2022/03/06 09:56:43;;;;;;;10.13;7.87;;;;;;;;;;5010738;28;20266;-80
2022/03/06 09:59:09;;;;;;;10.47;7.47;;;;;;;;;;5009295;28;20183;-80
2022/03/06 10:01:35;;;;;;;9.07;7.17;;;;;;;;;;5012696;28;20272;-80
2022/03/06 10:04:21;;;;;;;11.23;7.60;;;;;;;;;;4998918;28;20666;-80
2022/03/06 10:07:08;;;;;;;10.40;7.67;;;;;;;;;;5008585;28;20218;-81
2022/03/06 10:09:43;;;;;;;9.77;7.20;;;;;;;;;;5011771;28;20815;-80
2022/03/06 10:12:23;;;;;;;10.77;7.43;;;;;;;;;;5008255;28;20211;-80
2022/03/06 10:14:51;;;;;;;9.33;7.50;;;;;;;;;;5011394;28;20756;-80
2022/03/06 10:17:18;;;;;;;10.83;7.10;;;;;;;;;;5009388;28;20287;-81
2022/03/06 10:19:48;;;;;;;9.83;7.63;;;;;;;;;;4996943;28;20175;-80
2022/03/06 10:22:15;;;;;;;9.73;7.50;;;;;;;;;;5008599;28;20215;-80
2022/03/06 10:24:47;;;;;;;8.87;7.40;;;;;;;;;;5008722;28;20674;-81
2022/03/06 10:27:13;;;;;;;13.17;7.70;;;;;;;;;;5009153;28;20241;-81
2022/03/06 10:29:40;;;;;;;9.67;7.60;;;;;;;;;;5021058;28;20966;-81
2022/03/06 10:32:07;;;;;;;9.13;7.50;;;;;;;;;;5028766;28;20184;-80
2022/03/06 10:34:38;;;;;;;9.70;7.70;;;;;;;;;;5017543;28;20210;-80
2022/03/06 10:37:05;;;;;;;9.27;7.27;;;;;;;;;;4994686;28;20282;-80
2022/03/06 10:39:42;;;;;;;9.73;7.43;;;;;;;;;;5014567;28;21010;-80
2022/03/06 10:42:10;;;;;;;11.67;7.77;;;;;;;;;;4995658;28;20190;-80
2022/03/06 10:44:43;;;;;;;9.53;7.60;;;;;;;;;;5014359;28;20666;-80
2022/03/06 10:47:10;;;;;;;9.77;7.67;;;;;;;;;;5013555;28;20261;-80
2022/03/06 10:49:36;;;;;;;9.73;7.40;;;;;;;;;;5007619;28;20183;-80
2022/03/06 10:52:19;;;;;;;9.93;7.60;;;;;;;;;;5009365;28;20187;-80
2022/03/06 10:54:50;;;;;;;9.03;7.17;;;;;;;;;;5015058;28;20215;-80
2022/03/06 10:57:16;;;;;;;10.90;7.13;;;;;;;;;;5010832;28;20218;-80
2022/03/06 10:59:44;;;;;;;9.77;7.67;;;;;;;;;;4993955;28;20176;-82
2022/03/06 11:02:11;;;;;;;9.47;7.63;;;;;;;;;;5015796;28;20198;-79
2022/03/06 11:04:38;;;;;;;10.07;7.77;;;;;;;;;;5009830;28;20552;-79
2022/03/06 11:07:04;;;;;;;9.17;6.90;;;;;;;;;;5007379;28;20310;-78
2022/03/06 11:09:31;;;;;;;9.03;7.00;;;;;;;;;;5009919;28;20172;-80
2022/03/06 11:11:57;;;;;;;9.00;7.47;;;;;;;;;;4992172;28;20228;-79
2022/03/06 11:14:24;;;;;;;9.47;7.57;;;;;;;;;;5008254;28;20604;-80
2022/03/06 11:16:52;;;;;;;10.37;8.23;;;;;;;;;;4998300;28;20211;-79
2022/03/06 11:19:20;;;;;;;9.90;7.83;;;;;;;;;;5006012;28;20175;-78
2022/03/06 11:21:50;;;;;;;11.13;8.00;;;;;;;;;;5023411;28;20199;-81
2022/03/06 11:24:20;;;;;;;9.03;7.70;;;;;;;;;;5010850;28;20186;-81
2022/03/06 11:26:50;;;;;;;9.97;7.97;;;;;;;;;;5008957;28;20183;-82
2022/03/06 11:29:25;;;;;;;9.17;7.80;;;;;;;;;;4991910;28;20174;-83
2022/03/06 11:31:53;;;;;;;9.73;7.33;;;;;;;;;;5010513;28;20576;-79
2022/03/06 11:34:27;;;;;;;9.60;7.63;;;;;;;;;;5008610;28;20191;-78
2022/03/06 11:36:54;;;;;;;8.80;7.90;;;;;;;;;;5008341;28;20207;-81
2022/03/06 11:39:30;;;;;;;10.07;7.60;;;;;;;;;;5009938;28;20187;-79
2022/03/06 11:41:58;;;;;;;8.57;7.40;;;;;;;;;;5007899;28;20205;-83
2022/03/06 11:44:36;;;;;;;9.67;7.70;;;;;;;;;;5006513;28;20553;-80
2022/03/06 11:47:11;;;;;;;8.80;7.17;;;;;;;;;;5008881;28;20690;-81
2022/03/06 11:49:38;;;;;;;8.97;7.87;;;;;;;;;;5012047;28;20266;-80
2022/03/06 11:52:24;;;;;;;11.13;8.00;;;;;;;;;;5008064;28;20275;-79
2022/03/06 11:54:50;;;;;;;10.40;7.93;;;;;;;;;;5016194;28;20655;-78
2022/03/06 11:57:35;;;;;;;10.50;8.10;;;;;;;;;;5010879;28;20203;-78
2022/03/06 12:00:15;;;;;;;8.77;7.67;;;;;;;;;;5008901;28;20397;-78
2022/03/06 12:02:48;;;;;;;8.60;7.43;;;;;;;;;;5009531;28;20214;-80
2022/03/06 12:05:14;;;;;;;9.57;7.90;;;;;;;;;;5009884;28;20179;-80
2022/03/06 12:07:41;;;;;;;10.20;7.70;;;;;;;;;;5009823;28;20230;-79
2022/03/06 12:10:09;;;;;;;9.43;7.53;;;;;;;;;;5006688;28;20183;-78
2022/03/06 12:12:36;;;;;;;9.23;7.97;;;;;;;;;;5009303;28;20217;-78
2022/03/06 12:15:16;;;;;;;9.50;7.80;;;;;;;;;;5007516;28;21188;-80
2022/03/06 12:17:43;;;;;;;10.67;8.27;;;;;;;;;;5006300;28;20206;-79
2022/03/06 12:20:09;;;;;;;9.07;7.97;;;;;;;;;;5008789;28;20207;-77
2022/03/06 12:22:44;;;;;;;8.33;7.40;;;;;;;;;;5012976;28;20187;-78
2022/03/06 12:25:14;;;;;;;8.00;7.10;;;;;;;;;;5006980;28;20185;-79
2022/03/06 12:28:03;;;;;;;9.87;7.77;;;;;;;;;;5012225;28;20564;-80
2022/03/06 12:30:34;;;;;;;8.70;7.30;;;;;;;;;;5008741;28;20651;-79
2022/03/06 12:33:19;;;;;;;8.87;7.43;;;;;;;;;;5006647;28;20187;-78
2022/03/06 12:35:45;;;;;;;8.23;7.00;;;;;;;;;;4991426;28;20183;-77
2022/03/06 12:38:22;;;;;;;8.57;7.20;;;;;;;;;;5007520;28;20210;-78
2022/03/06 12:40:48;;;;;;;8.80;7.87;;;;;;;;;;5005515;28;20210;-78
2022/03/06 12:43:19;;;;;;;8.53;7.73;;;;;;;;;;5008858;28;20663;-78
2022/03/06 12:45:46;;;;;;;9.33;7.50;;;;;;;;;;5004476;28;20176;-78
2022/03/06 12:48:12;;;;;;;8.27;7.47;;;;;;;;;;5007112;28;20207;-77
2022/03/06 12:50:41;;;;;;;8.20;7.40;;;;;;;;;;4990688;28;20674;-77
2022/03/06 12:53:08;;;;;;;7.97;7.23;;;;;;;;;;5006813;28;20321;-78
2022/03/06 12:55:35;;;;;;;8.53;7.63;;;;;;;;;;5003180;28;20190;-78
2022/03/06 12:58:01;;;;;;;7.93;7.13;;;;;;;;;;5005733;28;20564;-77
2022/03/06 13:00:29;;;;;;;8.30;7.00;;;;;;;;;;5005650;28;20211;-78
2022/03/06 13:02:57;;;;;;;8.00;7.20;;;;;;;;;;5013394;28;20183;-77
2022/03/06 13:05:25;;;;;;;8.13;7.33;;;;;;;;;;5014815;28;20267;-78
2022/03/06 13:07:52;;;;;;;8.53;7.57;;;;;;;;;;5014037;28;20311;-78
2022/03/06 13:10:18;;;;;;;7.87;7.07;;;;;;;;;;5010799;28;20191;-78
2022/03/06 13:12:47;;;;;;;8.30;7.50;;;;;;;;;;5013064;28;20653;-86
2022/03/06 13:15:13;;;;;;;8.13;7.33;;;;;;;;;;5009503;28;20191;-79
2022/03/06 13:17:40;;;;;;;8.07;7.27;;;;;;;;;;5011948;28;20215;-83
2022/03/06 13:20:07;;;;;;;7.50;6.80;;;;;;;;;;5018012;28;20210;-87
2022/03/06 13:22:33;;;;;;;8.47;7.67;;;;;;;;;;5002819;28;20182;-84
2022/03/06 13:25:00;;;;;;;8.10;7.30;;;;;;;;;;5013356;28;20202;-81
2022/03/06 13:27:28;;;;;;;8.27;7.40;;;;;;;;;;5011562;28;20203;-82
2022/03/06 13:30:14;;;;;;;7.97;7.13;;;;;;;;;;5013045;28;20199;-82
2022/03/06 13:32:48;;;;;;;8.13;7.33;;;;;;;;;;4993292;28;20219;-82
2022/03/06 13:35:26;;;;;;;7.90;7.10;;;;;;;;;;5014097;28;20210;-82
2022/03/06 13:37:58;;;;;;;7.53;6.83;;;;;;;;;;5011889;28;20210;-82
2022/03/06 13:40:26;;;;;;;8.37;7.57;;;;;;;;;;5011599;28;20207;-82
2022/03/06 13:42:52;;;;;;;8.00;7.30;;;;;;;;;;5016143;28;20229;-81
2022/03/06 13:45:18;;;;;;;7.67;6.97;;;;;;;;;;5015671;28;20177;-81
2022/03/06 13:47:50;;;;;;;7.60;6.90;;;;;;;;;;5013752;28;20214;-82
2022/03/06 13:50:24;;;;;;;8.10;7.30;;;;;;;;;;5009148;28;20195;-83
2022/03/06 13:52:52;;;;;;;8.23;7.47;;;;;;;;;;5012913;28;20275;-82
2022/03/06 13:55:18;;;;;;;8.13;7.33;;;;;;;;;;5014662;28;20262;-84
2022/03/06 13:58:00;;;;;;;8.50;7.70;;;;;;;;;;5012887;28;20227;-84
2022/03/06 14:00:27;;;;;;;7.13;6.43;;;;;;;;;;5004640;28;20226;-82
2022/03/06 14:03:01;;;;;;;8.30;7.50;;;;;;;;;;5012997;28;20179;-82
2022/03/06 14:05:29;;;;;;;8.07;7.30;;;;;;;;;;5004415;28;20180;-82
2022/03/06 14:07:56;;;;;;;9.47;8.57;;;;;;;;;;5009212;28;20314;-82
2022/03/06 14:10:41;;;;;;;9.07;8.17;;;;;;;;;;5012681;28;20639;-83
2022/03/06 14:13:26;;;;;;;10.17;8.40;;;;;;;;;;5009227;28;20262;-82
2022/03/06 14:15:54;;;;;;;8.67;7.87;;;;;;;;;;5011446;28;20195;-81
2022/03/06 14:18:30;;;;;;;9.07;8.17;;;;;;;;;;5011018;28;20206;-81
2022/03/06 14:20:56;;;;;;;8.77;7.90;;;;;;;;;;5010117;28;20231;-81
2022/03/06 14:23:22;;;;;;;10.13;8.43;;;;;;;;;;5012477;28;20183;-82
2022/03/06 14:25:49;;;;;;;9.00;8.10;;;;;;;;;;5011099;28;20187;-81
2022/03/06 14:28:17;;;;;;;10.07;8.57;;;;;;;;;;5012598;28;20289;-85
2022/03/06 14:30:44;;;;;;;9.67;8.67;;;;;;;;;;5015674;28;20187;-81
2022/03/06 14:33:10;;;;;;;9.90;8.90;;;;;;;;;;5011014;28;20314;-81
2022/03/06 14:35:37;;;;;;;9.03;8.13;;;;;;;;;;5009393;28;20177;-82